地図

経路データ

SID SEASON NUMBER BASIN SUBBASIN NAME ISO_TIME NATURE LAT LON WMO_WIND WMO_PRES WMO_AGENCY TRACK_TYPE DIST2LAND LANDFALL IFLAG USA_AGENCY USA_ATCF_ID USA_LAT USA_LON USA_RECORD USA_STATUS USA_WIND USA_PRES USA_SSHS USA_R34_NE USA_R34_SE USA_R34_SW USA_R34_NW USA_R50_NE USA_R50_SE USA_R50_SW USA_R50_NW USA_R64_NE USA_R64_SE USA_R64_SW USA_R64_NW USA_POCI USA_ROCI USA_RMW USA_EYE TOKYO_LAT TOKYO_LON TOKYO_GRADE TOKYO_WIND TOKYO_PRES TOKYO_R50_DIR TOKYO_R50_LONG TOKYO_R50_SHORT TOKYO_R30_DIR TOKYO_R30_LONG TOKYO_R30_SHORT TOKYO_LAND CMA_LAT CMA_LON CMA_CAT CMA_WIND CMA_PRES HKO_LAT HKO_LON HKO_CAT HKO_WIND HKO_PRES NEWDELHI_LAT NEWDELHI_LON NEWDELHI_GRADE NEWDELHI_WIND NEWDELHI_PRES NEWDELHI_CI NEWDELHI_DP NEWDELHI_POCI REUNION_LAT REUNION_LON REUNION_TYPE REUNION_WIND REUNION_PRES REUNION_TNUM REUNION_CI REUNION_RMW REUNION_R34_NE REUNION_R34_SE REUNION_R34_SW REUNION_R34_NW REUNION_R50_NE REUNION_R50_SE REUNION_R50_SW REUNION_R50_NW REUNION_R64_NE REUNION_R64_SE REUNION_R64_SW REUNION_R64_NW BOM_LAT BOM_LON BOM_TYPE BOM_WIND BOM_PRES BOM_TNUM BOM_CI BOM_RMW BOM_R34_NE BOM_R34_SE BOM_R34_SW BOM_R34_NW BOM_R50_NE BOM_R50_SE BOM_R50_SW BOM_R50_NW BOM_R64_NE BOM_R64_SE BOM_R64_SW BOM_R64_NW BOM_ROCI BOM_POCI BOM_EYE BOM_POS_METHOD BOM_PRES_METHOD NADI_LAT NADI_LON NADI_CAT NADI_WIND NADI_PRES WELLINGTON_LAT WELLINGTON_LON WELLINGTON_WIND WELLINGTON_PRES DS824_LAT DS824_LON DS824_STAGE DS824_WIND DS824_PRES TD9636_LAT TD9636_LON TD9636_STAGE TD9636_WIND TD9636_PRES TD9635_LAT TD9635_LON TD9635_WIND TD9635_PRES TD9635_ROCI NEUMANN_LAT NEUMANN_LON NEUMANN_CLASS NEUMANN_WIND NEUMANN_PRES MLC_LAT MLC_LON MLC_CLASS MLC_WIND MLC_PRES USA_GUST BOM_GUST BOM_GUST_PER REUNION_GUST REUNION_GUST_PER USA_SEAHGT USA_SEARAD_NE USA_SEARAD_SE USA_SEARAD_SW USA_SEARAD_NW STORM_SPEED STORM_DIR
1885241N15141 1885 37 WP MM NOT_NAMED 1885-08-28 16:00:00 NR 15.2000 140.800 main 1687 1657 __________O___ -1 15.2000 140.800 4 8 287
1885241N15141 1885 37 WP MM NOT_NAMED 1885-08-28 18:00:00 NR 15.2736 140.550 main 1657 1627 __________P___ -1 15.2736 140.550 4 8 287
1885241N15141 1885 37 WP MM NOT_NAMED 1885-08-28 21:00:00 NR 15.3811 140.180 main 1627 1587 __________P___ -1 15.3811 140.180 4 7 287
1885241N15141 1885 37 WP MM NOT_NAMED 1885-08-29 00:00:00 NR 15.4820 139.828 main 1587 1558 __________P___ -1 15.4820 139.828 4 7 286
1885241N15141 1885 37 WP MM NOT_NAMED 1885-08-29 03:00:00 NR 15.5727 139.501 main 1558 1548 __________P___ -1 15.5727 139.501 4 6 286
1885241N15141 1885 37 WP MM NOT_NAMED 1885-08-29 04:00:00 NR 15.6000 139.400 main 1548 1527 __________O___ -1 15.6000 139.400 4 6 285
1885241N15141 1885 37 WP MM NOT_NAMED 1885-08-29 06:00:00 NR 15.6503 139.210 main 1529 1508 __________P___ -1 15.6503 139.210 4 5 285
1885241N15141 1885 37 WP MM NOT_NAMED 1885-08-29 09:00:00 NR 15.7194 138.951 main 1508 1480 __________P___ -1 15.7194 138.951 4 5 286
1885241N15141 1885 37 WP MM NOT_NAMED 1885-08-29 12:00:00 NR 15.7893 138.711 main 1480 1459 __________P___ -1 15.7893 138.711 4 5 288
1885241N15141 1885 37 WP MM NOT_NAMED 1885-08-29 15:00:00 NR 15.8694 138.478 main 1462 1452 __________P___ -1 15.8694 138.478 4 5 290
1885241N15141 1885 37 WP MM NOT_NAMED 1885-08-29 16:00:00 NR 15.9000 138.400 main 1452 1434 __________O___ -1 15.9000 138.400 4 5 294
1885241N15141 1885 37 WP MM NOT_NAMED 1885-08-29 18:00:00 NR 15.9718 138.233 main 1434 1416 __________P___ -1 15.9718 138.233 4 5 296
1885241N15141 1885 37 WP MM NOT_NAMED 1885-08-29 21:00:00 NR 16.0923 137.983 main 1416 1389 __________P___ -1 16.0923 137.983 4 5 298
1885241N15141 1885 37 WP MM NOT_NAMED 1885-08-30 00:00:00 NR 16.2224 137.733 main 1389 1372 __________P___ -1 16.2224 137.733 4 5 299
1885241N15141 1885 37 WP MM NOT_NAMED 1885-08-30 03:00:00 NR 16.3558 137.483 main 1375 1365 __________P___ -1 16.3558 137.483 4 6 299
1885241N15141 1885 37 WP MM NOT_NAMED 1885-08-30 04:00:00 NR 16.4000 137.400 main 1365 1349 __________O___ -1 16.4000 137.400 4 6 297
1885241N15141 1885 37 WP MM NOT_NAMED 1885-08-30 06:00:00 NR 16.4807 137.228 main 1349 1333 __________P___ -1 16.4807 137.228 4 6 296
1885241N15141 1885 37 WP MM NOT_NAMED 1885-08-30 09:00:00 NR 16.6017 136.970 main 1333 1307 __________P___ -1 16.6017 136.970 4 5 297
1885241N15141 1885 37 WP MM NOT_NAMED 1885-08-30 12:00:00 NR 16.7254 136.717 main 1307 1291 __________P___ -1 16.7254 136.717 4 5 298
1885241N15141 1885 37 WP MM NOT_NAMED 1885-08-30 15:00:00 NR 16.8550 136.477 main 1295 1285 __________P___ -1 16.8550 136.477 4 5 300
1885241N15141 1885 37 WP MM NOT_NAMED 1885-08-30 16:00:00 NR 16.9000 136.400 main 1285 1275 __________O___ -1 16.9000 136.400 4 5 302
1885241N15141 1885 37 WP MM NOT_NAMED 1885-08-30 18:00:00 NR 16.9863 136.253 main 1280 1255 __________P___ -1 16.9863 136.253 4 5 303
1885241N15141 1885 37 WP MM NOT_NAMED 1885-08-30 21:00:00 NR 17.1221 136.044 main 1255 1246 __________P___ -1 17.1221 136.044 4 5 306
1885241N15141 1885 37 WP MM NOT_NAMED 1885-08-31 00:00:00 NR 17.2708 135.848 main 1246 1241 __________P___ -1 17.2708 135.848 4 5 311
1885241N15141 1885 37 WP MM NOT_NAMED 1885-08-31 03:00:00 NR 17.4387 135.661 main 1241 1237 __________P___ -1 17.4387 135.661 4 5 314
1885241N15141 1885 37 WP MM NOT_NAMED 1885-08-31 04:00:00 NR 17.5000 135.600 main 1237 1232 __________O___ -1 17.5000 135.600 4 5 318
1885241N15141 1885 37 WP MM NOT_NAMED 1885-08-31 06:00:00 NR 17.6355 135.475 main 1232 1224 __________P___ -1 17.6355 135.475 4 6 321
1885241N15141 1885 37 WP MM NOT_NAMED 1885-08-31 09:00:00 NR 17.8577 135.294 main 1230 1221 __________P___ -1 17.8577 135.294 4 6 323
1885241N15141 1885 37 WP MM NOT_NAMED 1885-08-31 12:00:00 NR 18.0916 135.120 main 1223 1220 __________P___ -1 18.0916 135.120 4 6 325
1885241N15141 1885 37 WP MM NOT_NAMED 1885-08-31 15:00:00 NR 18.3246 134.954 main 1226 1217 __________P___ -1 18.3246 134.954 4 6 326
1885241N15141 1885 37 WP MM NOT_NAMED 1885-08-31 16:00:00 NR 18.4000 134.900 main 1223 1221 __________O___ -1 18.4000 134.900 4 5 326
1885241N15141 1885 37 WP MM NOT_NAMED 1885-08-31 18:00:00 NR 18.5337 134.802 main 1221 1218 __________P___ -1 18.5337 134.802 4 5 325
1885241N15141 1885 37 WP MM NOT_NAMED 1885-08-31 21:00:00 NR 18.7279 134.661 main 1223 1213 __________P___ -1 18.7279 134.661 4 5 325
1885241N15141 1885 37 WP MM NOT_NAMED 1885-09-01 00:00:00 NR 18.9228 134.518 main 1213 1209 __________P___ -1 18.9228 134.518 4 5 325
1885241N15141 1885 37 WP MM NOT_NAMED 1885-09-01 03:00:00 NR 19.1278 134.359 main 1214 1205 __________P___ -1 19.1278 134.359 4 5 323
1885241N15141 1885 37 WP MM NOT_NAMED 1885-09-01 04:00:00 NR 19.2000 134.300 main 1210 1206 __________O___ -1 19.2000 134.300 4 6 320
1885241N15141 1885 37 WP MM NOT_NAMED 1885-09-01 06:00:00 NR 19.3500 134.167 main 1211 1195 __________P___ -1 19.3500 134.167 4 6 319
1885241N15141 1885 37 WP MM NOT_NAMED 1885-09-01 09:00:00 NR 19.5875 133.949 main 1195 1189 __________P___ -1 19.5875 133.949 4 7 319
1885241N15141 1885 37 WP MM NOT_NAMED 1885-09-01 12:00:00 NR 19.8400 133.716 main 1189 1184 __________P___ -1 19.8400 133.716 4 7 320
1885241N15141 1885 37 WP MM NOT_NAMED 1885-09-01 15:00:00 NR 20.1075 133.479 main 1190 1181 __________P___ -1 20.1075 133.479 4 7 321
1885241N15141 1885 37 WP MM NOT_NAMED 1885-09-01 16:00:00 NR 20.2000 133.400 main 1181 1164 __________O___ -1 20.2000 133.400 4 7 323
1885241N15141 1885 37 WP MM NOT_NAMED 1885-09-01 18:00:00 NR 20.3885 133.250 main 1164 1150 __________P___ -1 20.3885 133.250 4 7 324
1885241N15141 1885 37 WP MM NOT_NAMED 1885-09-01 21:00:00 NR 20.6840 133.025 main 1150 1134 __________P___ -1 20.6840 133.025 4 7 325
1885241N15141 1885 37 WP MM NOT_NAMED 1885-09-02 00:00:00 NR 20.9890 132.800 main 1136 1099 __________P___ -1 20.9890 132.800 4 7 326
1885241N15141 1885 37 WP MM NOT_NAMED 1885-09-02 03:00:00 NR 21.2975 132.575 main 1099 1087 __________P___ -1 21.2975 132.575 4 7 326
1885241N15141 1885 37 WP MM NOT_NAMED 1885-09-02 04:00:00 NR 21.4000 132.500 main 1087 1061 __________O___ -1 21.4000 132.500 4 7 324
1885241N15141 1885 37 WP MM NOT_NAMED 1885-09-02 06:00:00 NR 21.5895 132.347 main 1061 1025 __________P___ -1 21.5895 132.347 4 7 323
1885241N15141 1885 37 WP MM NOT_NAMED 1885-09-02 09:00:00 NR 21.8735 132.118 main 1025 990 __________P___ -1 21.8735 132.118 4 7 324
1885241N15141 1885 37 WP MM NOT_NAMED 1885-09-02 12:00:00 NR 22.1684 131.892 main 990 954 __________P___ -1 22.1684 131.892 4 7 326
1885241N15141 1885 37 WP MM NOT_NAMED 1885-09-02 15:00:00 NR 22.4866 131.671 main 954 942 __________P___ -1 22.4866 131.671 4 8 328
1885241N15141 1885 37 WP MM NOT_NAMED 1885-09-02 16:00:00 NR 22.6000 131.600 main 942 908 __________O___ -1 22.6000 131.600 4 8 332
1885241N15141 1885 37 WP MM NOT_NAMED 1885-09-02 18:00:00 NR 22.8595 131.456 main 908 861 __________P___ -1 22.8595 131.456 4 9 334
1885241N15141 1885 37 WP MM NOT_NAMED 1885-09-02 21:00:00 NR 23.2744 131.246 main 861 815 __________P___ -1 23.2744 131.246 4 9 336
1885241N15141 1885 37 WP MM NOT_NAMED 1885-09-03 00:00:00 NR 23.6923 131.046 main 815 770 __________P___ -1 23.6923 131.046 4 9 336
1885241N15141 1885 37 WP MM NOT_NAMED 1885-09-03 03:00:00 NR 24.0819 130.859 main 770 759 __________P___ -1 24.0819 130.859 4 8 336
1885241N15141 1885 37 WP MM NOT_NAMED 1885-09-03 04:00:00 NR 24.2000 130.800 main 759 736 __________O___ -1 24.2000 130.800 4 7 334
1885241N15141 1885 37 WP MM NOT_NAMED 1885-09-03 06:00:00 NR 24.3982 130.691 main 736 703 __________P___ -1 24.3982 130.691 4 6 333
1885241N15141 1885 37 WP MM NOT_NAMED 1885-09-03 09:00:00 NR 24.6576 130.540 main 703 681 __________P___ -1 24.6576 130.540 4 6 332
1885241N15141 1885 37 WP MM NOT_NAMED 1885-09-03 12:00:00 NR 24.8912 130.396 main 681 659 __________P___ -1 24.8912 130.396 4 5 330
1885241N15141 1885 37 WP MM NOT_NAMED 1885-09-03 15:00:00 NR 25.1206 130.251 main 659 649 __________P___ -1 25.1206 130.251 4 5 330
1885241N15141 1885 37 WP MM NOT_NAMED 1885-09-03 16:00:00 NR 25.2000 130.200 main 649 627 __________O___ -1 25.2000 130.200 4 6 328
1885241N15141 1885 37 WP MM NOT_NAMED 1885-09-03 18:00:00 NR 25.3698 130.084 main 627 606 __________P___ -1 25.3698 130.084 4 6 328
1885241N15141 1885 37 WP MM NOT_NAMED 1885-09-03 21:00:00 NR 25.6306 129.903 main 607 576 __________P___ -1 25.6306 129.903 4 6 329
1885241N15141 1885 37 WP MM NOT_NAMED 1885-09-04 00:00:00 NR 25.9043 129.723 main 577 546 __________P___ -1 25.9043 129.723 4 7 331
1885241N15141 1885 37 WP MM NOT_NAMED 1885-09-04 03:00:00 NR 26.1971 129.553 main 546 537 __________P___ -1 26.1971 129.553 4 7 333
1885241N15141 1885 37 WP MM NOT_NAMED 1885-09-04 04:00:00 NR 26.3000 129.500 main 537 518 __________O___ -1 26.3000 129.500 4 7 337
1885241N15141 1885 37 WP MM NOT_NAMED 1885-09-04 06:00:00 NR 26.5146 129.402 main 518 477 __________P___ -1 26.5146 129.402 4 7 340
1885241N15141 1885 37 WP MM NOT_NAMED 1885-09-04 09:00:00 NR 26.8551 129.269 main 477 448 __________P___ -1 26.8551 129.269 4 7 342
1885241N15141 1885 37 WP MM NOT_NAMED 1885-09-04 12:00:00 NR 27.2116 129.149 main 451 413 __________P___ -1 27.2116 129.149 4 8 344
1885241N15141 1885 37 WP MM NOT_NAMED 1885-09-04 15:00:00 NR 27.5773 129.037 main 413 403 __________P___ -1 27.5773 129.037 4 8 345
1885241N15141 1885 37 WP MM NOT_NAMED 1885-09-04 16:00:00 NR 27.7000 129.000 main 403 __________O___ -1 27.7000 129.000 4 8 339

デジタル台風データ・検索

IBTrACS Databaseについて

本データベースは、米国NOAAが公開する1842年以降の世界の熱帯低気圧のベストトラックデータアーカイブInternational Best Track Archive for Climate Stewardship (IBTrACS)を、ウェブで閲覧しやすい形式に変換したものです。

最終更新日:2021-12-01